sensor_id;sensor_type;location;lat;lon;timestamp;pressure;altitude;pressure_sealevel;temperature;humidity
72855;BME280;60991;51.278;22.550;2023-06-04T00:00:54;99810.97;;;14.07;48.70
72855;BME280;60991;51.278;22.550;2023-06-04T00:02:25;99813.63;;;14.07;48.26
72855;BME280;60991;51.278;22.550;2023-06-04T00:03:55;99810.97;;;14.07;48.59
72855;BME280;60991;51.278;22.550;2023-06-04T00:05:25;99816.78;;;14.04;48.54
72855;BME280;60991;51.278;22.550;2023-06-04T00:06:55;99813.56;;;14.02;48.63
72855;BME280;60991;51.278;22.550;2023-06-04T00:08:25;99819.47;;;14.04;48.54
72855;BME280;60991;51.278;22.550;2023-06-04T00:09:56;99810.09;;;14.01;49.07
72855;BME280;60991;51.278;22.550;2023-06-04T00:11:26;99805.56;;;14.02;48.78
72855;BME280;60991;51.278;22.550;2023-06-04T00:12:56;99814.13;;;14.04;48.70
72855;BME280;60991;51.278;22.550;2023-06-04T00:14:27;99806.13;;;14.04;48.79
72855;BME280;60991;51.278;22.550;2023-06-04T00:15:57;99806.38;;;14.02;48.82
72855;BME280;60991;51.278;22.550;2023-06-04T00:17:27;99810.91;;;14.02;48.86
72855;BME280;60991;51.278;22.550;2023-06-04T00:18:57;99799.66;;;14.00;48.72
72855;BME280;60991;51.278;22.550;2023-06-04T00:20:27;99799.09;;;13.98;48.64
72855;BME280;60991;51.278;22.550;2023-06-04T00:21:58;99797.47;;;13.97;48.80
72855;BME280;60991;51.278;22.550;2023-06-04T00:23:28;99791.09;;;13.98;48.89
72855;BME280;60991;51.278;22.550;2023-06-04T00:24:58;99787.88;;;13.96;48.78
72855;BME280;60991;51.278;22.550;2023-06-04T00:26:28;99794.25;;;13.95;49.17
72855;BME280;60991;51.278;22.550;2023-06-04T00:27:58;99788.66;;;13.96;48.92
72855;BME280;60991;51.278;22.550;2023-06-04T00:29:29;99787.06;;;13.95;48.63
72855;BME280;60991;51.278;22.550;2023-06-04T00:30:59;99779.28;;;13.94;48.51
72855;BME280;60991;51.278;22.550;2023-06-04T00:32:29;99789.97;;;13.94;48.66
72855;BME280;60991;51.278;22.550;2023-06-04T00:33:59;99791.31;;;13.91;48.85
72855;BME280;60991;51.278;22.550;2023-06-04T00:35:31;99785.97;;;13.91;48.86
72855;BME280;60991;51.278;22.550;2023-06-04T00:37:02;99787.81;;;13.91;48.91
72855;BME280;60991;51.278;22.550;2023-06-04T00:38:32;99787.81;;;13.91;48.71
72855;BME280;60991;51.278;22.550;2023-06-04T00:40:02;99785.97;;;13.91;48.72
72855;BME280;60991;51.278;22.550;2023-06-04T00:41:32;99782.72;;;13.89;48.70
72855;BME280;60991;51.278;22.550;2023-06-04T00:43:03;99778.44;;;13.88;48.80
72855;BME280;60991;51.278;22.550;2023-06-04T00:44:33;99778.44;;;13.88;48.67
72855;BME280;60991;51.278;22.550;2023-06-04T00:46:03;99777.41;;;13.89;48.59
72855;BME280;60991;51.278;22.550;2023-06-04T00:47:33;99782.50;;;13.91;48.59
72855;BME280;60991;51.278;22.550;2023-06-04T00:49:05;99783.22;;;13.86;49.05
72855;BME280;60991;51.278;22.550;2023-06-04T00:50:36;99777.09;;;13.85;49.14
72855;BME280;60991;51.278;22.550;2023-06-04T00:52:08;99772.56;;;13.86;48.99
72855;BME280;60991;51.278;22.550;2023-06-04T00:53:39;99770.94;;;13.85;49.09
72855;BME280;60991;51.278;22.550;2023-06-04T00:55:09;99777.31;;;13.84;49.12
72855;BME280;60991;51.278;22.550;2023-06-04T00:56:40;99784.53;;;13.83;49.00
72855;BME280;60991;51.278;22.550;2023-06-04T00:58:10;99775.16;;;13.81;48.86
72855;BME280;60991;51.278;22.550;2023-06-04T00:59:40;99779.69;;;13.80;49.04
72855;BME280;60991;51.278;22.550;2023-06-04T01:01:31;99770.06;;;13.79;49.36
72855;BME280;60991;51.278;22.550;2023-06-04T01:03:07;99769.00;;;13.80;48.96
72855;BME280;60991;51.278;22.550;2023-06-04T01:04:47;99774.84;;;13.77;49.50
72855;BME280;60991;51.278;22.550;2023-06-04T01:06:32;99768.94;;;13.75;49.59
72855;BME280;60991;51.278;22.550;2023-06-04T01:08:06;99770.81;;;13.75;49.61
72855;BME280;60991;51.278;22.550;2023-06-04T01:09:37;99770.28;;;13.73;49.31
72855;BME280;60991;51.278;22.550;2023-06-04T01:11:07;99778.28;;;13.73;49.49
72855;BME280;60991;51.278;22.550;2023-06-04T01:12:42;99768.91;;;13.70;49.72
72855;BME280;60991;51.278;22.550;2023-06-04T01:14:12;99768.66;;;13.72;49.87
72855;BME280;60991;51.278;22.550;2023-06-04T01:15:42;99775.28;;;13.69;49.88
72855;BME280;60991;51.278;22.550;2023-06-04T01:17:26;99772.06;;;13.67;49.81
72855;BME280;60991;51.278;22.550;2023-06-04T01:19:01;99773.34;;;13.65;50.13
72855;BME280;60991;51.278;22.550;2023-06-04T01:20:41;99775.47;;;13.63;50.11
72855;BME280;60991;51.278;22.550;2023-06-04T01:22:32;99774.91;;;13.61;50.25
72855;BME280;60991;51.278;22.550;2023-06-04T01:24:05;99769.31;;;13.62;50.17
72855;BME280;60991;51.278;22.550;2023-06-04T01:25:40;99771.91;;;13.57;50.06
72855;BME280;60991;51.278;22.550;2023-06-04T01:27:11;99764.16;;;13.56;50.31
72855;BME280;60991;51.278;22.550;2023-06-04T01:28:41;99769.50;;;13.56;50.13
72855;BME280;60991;51.278;22.550;2023-06-04T01:30:12;99759.88;;;13.55;50.17
72855;BME280;60991;51.278;22.550;2023-06-04T01:31:43;99762.25;;;13.51;50.19
72855;BME280;60991;51.278;22.550;2023-06-04T01:33:17;99766.78;;;13.50;50.44
72855;BME280;60991;51.278;22.550;2023-06-04T01:34:48;99767.03;;;13.49;50.16
72855;BME280;60991;51.278;22.550;2023-06-04T01:36:18;99760.31;;;13.46;50.61
72855;BME280;60991;51.278;22.550;2023-06-04T01:37:49;99759.50;;;13.46;50.78
72855;BME280;60991;51.278;22.550;2023-06-04T01:39:19;99763.53;;;13.48;50.27
72855;BME280;60991;51.278;22.550;2023-06-04T01:40:50;99764.84;;;13.46;50.42
72855;BME280;60991;51.278;22.550;2023-06-04T01:42:20;99758.47;;;13.47;50.64
72855;BME280;60991;51.278;22.550;2023-06-04T01:43:50;99758.13;;;13.43;50.44
72855;BME280;60991;51.278;22.550;2023-06-04T01:45:22;99763.97;;;13.40;50.54
72855;BME280;60991;51.278;22.550;2023-06-04T01:46:52;99764.44;;;13.37;51.05
72855;BME280;60991;51.278;22.550;2023-06-04T01:48:22;99770.28;;;13.34;50.93
72855;BME280;60991;51.278;22.550;2023-06-04T01:49:53;99767.31;;;13.31;51.09
72855;BME280;60991;51.278;22.550;2023-06-04T01:51:23;99767.56;;;13.29;50.95
72855;BME280;60991;51.278;22.550;2023-06-04T01:52:53;99764.88;;;13.29;51.00
72855;BME280;60991;51.278;22.550;2023-06-04T01:54:24;99772.06;;;13.29;51.49
72855;BME280;60991;51.278;22.550;2023-06-04T01:55:54;99771.03;;;13.30;51.36
72855;BME280;60991;51.278;22.550;2023-06-04T01:57:24;99768.38;;;13.30;51.30
72855;BME280;60991;51.278;22.550;2023-06-04T01:58:54;99768.84;;;13.27;51.15
72855;BME280;60991;51.278;22.550;2023-06-04T02:00:24;99776.28;;;13.25;51.50
72855;BME280;60991;51.278;22.550;2023-06-04T02:01:55;99770.13;;;13.24;51.31
72855;BME280;60991;51.278;22.550;2023-06-04T02:03:25;99773.03;;;13.23;51.45
72855;BME280;60991;51.278;22.550;2023-06-04T02:04:56;99777.81;;;13.21;51.58
72855;BME280;60991;51.278;22.550;2023-06-04T02:06:26;99779.91;;;13.18;51.63
72855;BME280;60991;51.278;22.550;2023-06-04T02:07:56;99770.06;;;13.19;51.59
72855;BME280;60991;51.278;22.550;2023-06-04T02:09:26;99778.28;;;13.17;51.97
72855;BME280;60991;51.278;22.550;2023-06-04T02:10:56;99777.75;;;13.15;52.08
72855;BME280;60991;51.278;22.550;2023-06-04T02:12:27;99784.34;;;13.13;51.98
72855;BME280;60991;51.278;22.550;2023-06-04T02:13:57;99778.69;;;13.09;51.92
72855;BME280;60991;51.278;22.550;2023-06-04T02:15:27;99776.50;;;13.06;52.48
72855;BME280;60991;51.278;22.550;2023-06-04T02:16:58;99777.56;;;13.05;52.18
72855;BME280;60991;51.278;22.550;2023-06-04T02:18:28;99778.59;;;13.04;52.56
72855;BME280;60991;51.278;22.550;2023-06-04T02:19:59;99777.00;;;13.03;52.33
72855;BME280;60991;51.278;22.550;2023-06-04T02:21:29;99778.03;;;13.02;52.23
72855;BME280;60991;51.278;22.550;2023-06-04T02:22:59;99788.94;;;13.01;52.19
72855;BME280;60991;51.278;22.550;2023-06-04T02:24:29;99787.84;;;12.97;52.57
72855;BME280;60991;51.278;22.550;2023-06-04T02:25:59;99791.00;;;12.94;52.40
72855;BME280;60991;51.278;22.550;2023-06-04T02:27:30;99789.59;;;12.91;52.63
72855;BME280;60991;51.278;22.550;2023-06-04T02:29:00;99787.41;;;12.88;52.49
72855;BME280;60991;51.278;22.550;2023-06-04T02:30:30;99785.56;;;12.89;52.55
72855;BME280;60991;51.278;22.550;2023-06-04T02:32:01;99794.59;;;12.88;52.82
72855;BME280;60991;51.278;22.550;2023-06-04T02:33:32;99791.13;;;12.87;52.77
72855;BME280;60991;51.278;22.550;2023-06-04T02:35:03;99790.00;;;12.83;52.36
72855;BME280;60991;51.278;22.550;2023-06-04T02:36:33;99791.56;;;12.79;52.78
72855;BME280;60991;51.278;22.550;2023-06-04T02:38:04;99785.09;;;12.75;53.03
72855;BME280;60991;51.278;22.550;2023-06-04T02:39:35;99792.50;;;12.73;53.25
72855;BME280;60991;51.278;22.550;2023-06-04T02:41:05;99782.34;;;12.70;53.12
72855;BME280;60991;51.278;22.550;2023-06-04T02:42:35;99787.91;;;12.68;52.98
72855;BME280;60991;51.278;22.550;2023-06-04T02:44:06;99788.94;;;12.67;52.82
72855;BME280;60991;51.278;22.550;2023-06-04T02:45:36;99785.72;;;12.65;53.04
72855;BME280;60991;51.278;22.550;2023-06-04T02:47:06;99793.94;;;12.64;53.20
72855;BME280;60991;51.278;22.550;2023-06-04T02:48:37;99785.13;;;12.63;53.64
72855;BME280;60991;51.278;22.550;2023-06-04T02:50:07;99784.91;;;12.65;53.15
72855;BME280;60991;51.278;22.550;2023-06-04T02:51:37;99785.72;;;12.65;53.22
72855;BME280;60991;51.278;22.550;2023-06-04T02:53:08;99787.81;;;12.63;53.32
72855;BME280;60991;51.278;22.550;2023-06-04T02:54:38;99788.84;;;12.62;53.66
72855;BME280;60991;51.278;22.550;2023-06-04T02:56:08;99793.38;;;12.62;53.64
72855;BME280;60991;51.278;22.550;2023-06-04T02:57:42;99784.28;;;12.58;53.77
72855;BME280;60991;51.278;22.550;2023-06-04T02:59:12;99785.66;;;12.60;53.79
72855;BME280;60991;51.278;22.550;2023-06-04T03:00:42;99785.06;;;12.58;53.73
72855;BME280;60991;51.278;22.550;2023-06-04T03:02:13;99777.91;;;12.59;53.66
72855;BME280;60991;51.278;22.550;2023-06-04T03:03:43;99783.22;;;12.59;53.90
72855;BME280;60991;51.278;22.550;2023-06-04T03:05:14;99786.13;;;12.57;53.87
72855;BME280;60991;51.278;22.550;2023-06-04T03:06:45;99783.47;;;12.57;54.25
72855;BME280;60991;51.278;22.550;2023-06-04T03:08:15;99780.00;;;12.57;53.69
72855;BME280;60991;51.278;22.550;2023-06-04T03:09:46;99786.13;;;12.57;53.78
72855;BME280;60991;51.278;22.550;2023-06-04T03:11:17;99772.00;;;12.57;53.93
72855;BME280;60991;51.278;22.550;2023-06-04T03:12:48;99782.41;;;12.58;54.10
72855;BME280;60991;51.278;22.550;2023-06-04T03:14:18;99780.56;;;12.59;53.84
72855;BME280;60991;51.278;22.550;2023-06-04T03:15:48;99788.03;;;12.62;54.32
72855;BME280;60991;51.278;22.550;2023-06-04T03:17:18;99791.28;;;12.64;54.15
72855;BME280;60991;51.278;22.550;2023-06-04T03:18:49;99787.31;;;12.66;53.67
72855;BME280;60991;51.278;22.550;2023-06-04T03:20:19;99791.59;;;12.67;54.08
72855;BME280;60991;51.278;22.550;2023-06-04T03:21:49;99785.47;;;12.67;54.45
72855;BME280;60991;51.278;22.550;2023-06-04T03:23:20;99793.13;;;12.63;54.20
72855;BME280;60991;51.278;22.550;2023-06-04T03:24:51;99788.84;;;12.62;54.50
72855;BME280;60991;51.278;22.550;2023-06-04T03:26:21;99793.13;;;12.63;54.60
72855;BME280;60991;51.278;22.550;2023-06-04T03:27:51;99790.22;;;12.65;54.41
72855;BME280;60991;51.278;22.550;2023-06-04T03:29:21;99788.94;;;12.67;54.41
72855;BME280;60991;51.278;22.550;2023-06-04T03:30:51;99792.19;;;12.69;54.24
72855;BME280;60991;51.278;22.550;2023-06-04T03:32:22;99794.84;;;12.69;54.55
72855;BME280;60991;51.278;22.550;2023-06-04T03:33:52;99800.16;;;12.69;54.80
72855;BME280;60991;51.278;22.550;2023-06-04T03:35:22;99798.06;;;12.71;54.66
72855;BME280;60991;51.278;22.550;2023-06-04T03:36:55;99794.03;;;12.69;54.70
72855;BME280;60991;51.278;22.550;2023-06-04T03:38:26;99791.13;;;12.70;54.87
72855;BME280;60991;51.278;22.550;2023-06-04T03:39:56;99794.38;;;12.72;54.69
72855;BME280;60991;51.278;22.550;2023-06-04T03:41:26;99801.06;;;12.75;55.12
72855;BME280;60991;51.278;22.550;2023-06-04T03:42:56;99793.06;;;12.75;54.72
72855;BME280;60991;51.278;22.550;2023-06-04T03:44:26;99793.56;;;12.72;54.79
72855;BME280;60991;51.278;22.550;2023-06-04T03:45:57;99790.66;;;12.73;54.72
72855;BME280;60991;51.278;22.550;2023-06-04T03:47:27;99794.47;;;12.77;54.51
72855;BME280;60991;51.278;22.550;2023-06-04T03:48:57;99789.69;;;12.79;54.94
72855;BME280;60991;51.278;22.550;2023-06-04T03:50:27;99792.66;;;12.83;54.61
72855;BME280;60991;51.278;22.550;2023-06-04T03:51:57;99796.69;;;12.86;54.72
72855;BME280;60991;51.278;22.550;2023-06-04T03:53:28;99792.41;;;12.84;54.85
72855;BME280;60991;51.278;22.550;2023-06-04T03:54:58;99795.66;;;12.87;54.84
72855;BME280;60991;51.278;22.550;2023-06-04T03:56:29;99792.75;;;12.88;54.71
72855;BME280;60991;51.278;22.550;2023-06-04T03:57:59;99798.41;;;12.92;54.40
72855;BME280;60991;51.278;22.550;2023-06-04T03:59:29;99786.94;;;12.91;54.42
72855;BME280;60991;51.278;22.550;2023-06-04T04:00:59;99796.06;;;12.95;54.41
72855;BME280;60991;51.278;22.550;2023-06-04T04:02:30;99791.31;;;12.97;54.18
72855;BME280;60991;51.278;22.550;2023-06-04T04:04:00;99794.28;;;13.01;54.11
72855;BME280;60991;51.278;22.550;2023-06-04T04:05:30;99808.16;;;13.03;54.19
72855;BME280;60991;51.278;22.550;2023-06-04T04:07:01;99797.28;;;13.04;53.95
72855;BME280;60991;51.278;22.550;2023-06-04T04:08:31;99794.59;;;13.04;54.13
72855;BME280;60991;51.278;22.550;2023-06-04T04:10:01;99794.69;;;13.09;53.74
72855;BME280;60991;51.278;22.550;2023-06-04T04:11:32;99794.44;;;13.11;53.98
72855;BME280;60991;51.278;22.550;2023-06-04T04:13:02;99800.94;;;13.15;54.19
72855;BME280;60991;51.278;22.550;2023-06-04T04:14:32;99796.19;;;13.17;53.97
72855;BME280;60991;51.278;22.550;2023-06-04T04:16:03;99797.75;;;13.18;53.88
72855;BME280;60991;51.278;22.550;2023-06-04T04:17:33;99795.44;;;13.22;53.40
72855;BME280;60991;51.278;22.550;2023-06-04T04:19:03;99798.41;;;13.25;53.38
72855;BME280;60991;51.278;22.550;2023-06-04T04:20:33;99796.31;;;13.27;53.66
72855;BME280;60991;51.278;22.550;2023-06-04T04:22:04;99797.44;;;13.31;53.85
72855;BME280;60991;51.278;22.550;2023-06-04T04:23:34;99802.81;;;13.36;53.08
72855;BME280;60991;51.278;22.550;2023-06-04T04:25:04;99799.69;;;13.39;53.01
72855;BME280;60991;51.278;22.550;2023-06-04T04:26:35;99800.00;;;13.43;53.15
72855;BME280;60991;51.278;22.550;2023-06-04T04:28:05;99799.13;;;13.37;52.76
72855;BME280;60991;51.278;22.550;2023-06-04T04:29:35;99803.63;;;13.37;52.30
72855;BME280;60991;51.278;22.550;2023-06-04T04:31:05;99800.81;;;13.43;52.19
72855;BME280;60991;51.278;22.550;2023-06-04T04:32:35;99804.59;;;13.47;52.02
72855;BME280;60991;51.278;22.550;2023-06-04T04:34:07;99805.72;;;13.51;52.44
72855;BME280;60991;51.278;22.550;2023-06-04T04:35:37;99792.19;;;13.58;52.11
72855;BME280;60991;51.278;22.550;2023-06-04T04:37:07;99801.66;;;13.66;51.76
72855;BME280;60991;51.278;22.550;2023-06-04T04:38:38;99796.63;;;13.69;51.74
72855;BME280;60991;51.278;22.550;2023-06-04T04:40:08;99793.19;;;13.74;51.39
72855;BME280;60991;51.278;22.550;2023-06-04T04:41:38;99790.03;;;13.77;51.25
72855;BME280;60991;51.278;22.550;2023-06-04T04:43:08;99796.94;;;13.73;51.83
72855;BME280;60991;51.278;22.550;2023-06-04T04:44:39;99792.47;;;13.78;51.53
72855;BME280;60991;51.278;22.550;2023-06-04T04:46:09;99798.91;;;13.82;51.06
72855;BME280;60991;51.278;22.550;2023-06-04T04:47:39;99799.00;;;13.88;51.38
72855;BME280;60991;51.278;22.550;2023-06-04T04:49:09;99789.69;;;13.90;51.06
72855;BME280;60991;51.278;22.550;2023-06-04T04:50:39;99790.50;;;13.91;50.95
72855;BME280;60991;51.278;22.550;2023-06-04T04:52:10;99795.88;;;13.96;50.74
72855;BME280;60991;51.278;22.550;2023-06-04T04:53:40;99799.91;;;13.98;50.88
72855;BME280;60991;51.278;22.550;2023-06-04T04:55:10;99803.69;;;14.02;50.81
72855;BME280;60991;51.278;22.550;2023-06-04T04:56:40;99801.84;;;14.03;50.57
72855;BME280;60991;51.278;22.550;2023-06-04T04:58:11;99797.56;;;14.02;50.67
72855;BME280;60991;51.278;22.550;2023-06-04T04:59:41;99802.09;;;14.01;50.64
72855;BME280;60991;51.278;22.550;2023-06-04T05:01:11;99788.75;;;14.01;50.72
72855;BME280;60991;51.278;22.550;2023-06-04T05:02:41;99800.78;;;14.04;50.43
72855;BME280;60991;51.278;22.550;2023-06-04T05:04:11;99796.81;;;14.06;50.33
72855;BME280;60991;51.278;22.550;2023-06-04T05:05:42;99795.50;;;14.09;50.92
72855;BME280;60991;51.278;22.550;2023-06-04T05:07:12;99788.31;;;14.09;50.59
72855;BME280;60991;51.278;22.550;2023-06-04T05:08:42;99793.69;;;14.14;50.60
72855;BME280;60991;51.278;22.550;2023-06-04T05:10:13;99798.53;;;14.17;50.75
72855;BME280;60991;51.278;22.550;2023-06-04T05:11:43;99794.88;;;14.24;50.76
72855;BME280;60991;51.278;22.550;2023-06-04T05:13:13;99789.03;;;14.27;50.36
72855;BME280;60991;51.278;22.550;2023-06-04T05:14:45;99785.56;;;14.31;50.42
72855;BME280;60991;51.278;22.550;2023-06-04T05:16:15;99788.50;;;14.30;50.40
72855;BME280;60991;51.278;22.550;2023-06-04T05:17:45;99793.59;;;14.31;50.47
72855;BME280;60991;51.278;22.550;2023-06-04T05:19:16;99788.25;;;14.31;50.13
72855;BME280;60991;51.278;22.550;2023-06-04T05:20:46;99790.97;;;14.36;50.14
72855;BME280;60991;51.278;22.550;2023-06-04T05:22:17;99793.97;;;14.40;50.01
72855;BME280;60991;51.278;22.550;2023-06-04T05:23:47;99788.69;;;14.45;49.84
72855;BME280;60991;51.278;22.550;2023-06-04T05:25:17;99787.34;;;14.42;49.76
72855;BME280;60991;51.278;22.550;2023-06-04T05:26:47;99789.75;;;14.44;49.66
72855;BME280;60991;51.278;22.550;2023-06-04T05:28:18;99786.59;;;14.47;49.52
72855;BME280;60991;51.278;22.550;2023-06-04T05:29:48;99782.38;;;14.56;49.50
72855;BME280;60991;51.278;22.550;2023-06-04T05:31:18;99779.97;;;14.54;49.87
72855;BME280;60991;51.278;22.550;2023-06-04T05:32:48;99783.81;;;14.64;49.71
72855;BME280;60991;51.278;22.550;2023-06-04T05:34:19;99784.63;;;14.69;49.73
72855;BME280;60991;51.278;22.550;2023-06-04T05:35:49;99785.75;;;14.73;49.44
72855;BME280;60991;51.278;22.550;2023-06-04T05:37:19;99778.03;;;14.77;49.43
72855;BME280;60991;51.278;22.550;2023-06-04T05:38:50;99786.09;;;14.82;49.27
72855;BME280;60991;51.278;22.550;2023-06-04T05:40:20;99781.81;;;14.86;49.40
72855;BME280;60991;51.278;22.550;2023-06-04T05:41:51;99777.84;;;14.88;49.63
72855;BME280;60991;51.278;22.550;2023-06-04T05:43:21;99778.13;;;14.92;49.83
72855;BME280;60991;51.278;22.550;2023-06-04T05:44:51;99780.06;;;14.97;49.50
72855;BME280;60991;51.278;22.550;2023-06-04T05:46:22;99780.31;;;14.95;49.40
72855;BME280;60991;51.278;22.550;2023-06-04T05:47:53;99780.59;;;14.99;49.50
72855;BME280;60991;51.278;22.550;2023-06-04T05:49:23;99777.88;;;14.94;49.88
72855;BME280;60991;51.278;22.550;2023-06-04T05:50:54;99769.66;;;15.00;49.33
72855;BME280;60991;51.278;22.550;2023-06-04T05:52:24;99774.47;;;15.03;49.05
72855;BME280;60991;51.278;22.550;2023-06-04T05:53:54;99770.72;;;14.99;48.86
72855;BME280;60991;51.278;22.550;2023-06-04T05:55:24;99779.03;;;15.03;48.56
72855;BME280;60991;51.278;22.550;2023-06-04T05:56:55;99772.13;;;15.12;48.56
72855;BME280;60991;51.278;22.550;2023-06-04T05:58:25;99777.28;;;15.18;48.61
72855;BME280;60991;51.278;22.550;2023-06-04T05:59:55;99777.28;;;15.23;48.40
72855;BME280;60991;51.278;22.550;2023-06-04T06:01:25;99773.28;;;15.21;48.64
72855;BME280;60991;51.278;22.550;2023-06-04T06:02:55;99780.75;;;15.24;48.65
72855;BME280;60991;51.278;22.550;2023-06-04T06:04:26;99784.03;;;15.31;48.49
72855;BME280;60991;51.278;22.550;2023-06-04T06:05:56;99782.16;;;15.32;48.49
72855;BME280;60991;51.278;22.550;2023-06-04T06:07:26;99781.63;;;15.35;48.35
72855;BME280;60991;51.278;22.550;2023-06-04T06:08:57;99788.34;;;15.37;48.34
72855;BME280;60991;51.278;22.550;2023-06-04T06:10:27;99787.28;;;15.38;48.34
72855;BME280;60991;51.278;22.550;2023-06-04T06:11:57;99780.88;;;15.44;48.22
72855;BME280;60991;51.278;22.550;2023-06-04T06:13:27;99782.00;;;15.53;48.22
72855;BME280;60991;51.278;22.550;2023-06-04T06:14:57;99778.34;;;15.65;48.07
72855;BME280;60991;51.278;22.550;2023-06-04T06:16:28;99783.19;;;15.68;48.06
72855;BME280;60991;51.278;22.550;2023-06-04T06:17:58;99783.47;;;15.71;47.89
72855;BME280;60991;51.278;22.550;2023-06-04T06:19:28;99784.00;;;15.73;47.49
72855;BME280;60991;51.278;22.550;2023-06-04T06:20:58;99789.34;;;15.68;46.72
72855;BME280;60991;51.278;22.550;2023-06-04T06:22:29;99787.22;;;15.70;46.67
72855;BME280;60991;51.278;22.550;2023-06-04T06:23:59;99788.28;;;15.69;46.61
72855;BME280;60991;51.278;22.550;2023-06-04T06:25:29;99786.13;;;15.71;46.64
72855;BME280;60991;51.278;22.550;2023-06-04T06:26:59;99791.78;;;15.75;46.66
72855;BME280;60991;51.278;22.550;2023-06-04T06:28:29;99788.31;;;15.79;46.62
72855;BME280;60991;51.278;22.550;2023-06-04T06:30:00;99789.69;;;15.87;46.39
72855;BME280;60991;51.278;22.550;2023-06-04T06:31:30;99793.97;;;15.88;46.64
72855;BME280;60991;51.278;22.550;2023-06-04T06:33:00;99795.88;;;15.92;46.37
72855;BME280;60991;51.278;22.550;2023-06-04T06:34:30;99788.13;;;16.01;45.95
72855;BME280;60991;51.278;22.550;2023-06-04T06:36:00;99798.31;;;16.04;45.69
72855;BME280;60991;51.278;22.550;2023-06-04T06:37:31;99797.25;;;16.05;45.64
72855;BME280;60991;51.278;22.550;2023-06-04T06:39:01;99795.66;;;16.14;44.68
72855;BME280;60991;51.278;22.550;2023-06-04T06:40:31;99793.53;;;16.11;43.52
72855;BME280;60991;51.278;22.550;2023-06-04T06:42:01;99795.38;;;16.06;44.05
72855;BME280;60991;51.278;22.550;2023-06-04T06:43:32;99793.50;;;16.06;44.15
72855;BME280;60991;51.278;22.550;2023-06-04T06:45:02;99794.03;;;16.08;44.41
72855;BME280;60991;51.278;22.550;2023-06-04T06:46:33;99797.00;;;16.12;44.76
72855;BME280;60991;51.278;22.550;2023-06-04T06:48:04;99796.47;;;16.15;44.56
72855;BME280;60991;51.278;22.550;2023-06-04T06:49:34;99801.06;;;16.24;44.71
72855;BME280;60991;51.278;22.550;2023-06-04T06:51:04;99794.09;;;16.28;44.76
72855;BME280;60991;51.278;22.550;2023-06-04T06:52:34;99805.63;;;16.39;44.65
72855;BME280;60991;51.278;22.550;2023-06-04T06:54:04;99797.59;;;16.39;44.39
72855;BME280;60991;51.278;22.550;2023-06-04T06:55:35;99797.59;;;16.39;44.42
72855;BME280;60991;51.278;22.550;2023-06-04T06:57:05;99796.25;;;16.42;44.99
72855;BME280;60991;51.278;22.550;2023-06-04T06:58:35;99788.78;;;16.44;44.94
72855;BME280;60991;51.278;22.550;2023-06-04T07:00:06;99795.22;;;16.48;43.86
72855;BME280;60991;51.278;22.550;2023-06-04T07:01:36;99794.16;;;16.49;44.10
72855;BME280;60991;51.278;22.550;2023-06-04T07:03:06;99793.59;;;16.52;44.23
72855;BME280;60991;51.278;22.550;2023-06-04T07:04:36;99794.94;;;16.59;44.02
72855;BME280;60991;51.278;22.550;2023-06-04T07:06:07;99801.16;;;16.65;44.26
72855;BME280;60991;51.278;22.550;2023-06-04T07:07:37;99792.03;;;16.66;43.58
72855;BME280;60991;51.278;22.550;2023-06-04T07:09:07;99799.53;;;16.64;44.17
72855;BME280;60991;51.278;22.550;2023-06-04T07:10:37;99800.91;;;16.67;43.81
72855;BME280;60991;51.278;22.550;2023-06-04T07:12:08;99785.84;;;16.71;43.50
72855;BME280;60991;51.278;22.550;2023-06-04T07:13:39;99785.06;;;16.70;43.18
72855;BME280;60991;51.278;22.550;2023-06-04T07:15:09;99787.22;;;16.73;43.10
72855;BME280;60991;51.278;22.550;2023-06-04T07:16:39;99784.25;;;16.75;43.17
72855;BME280;60991;51.278;22.550;2023-06-04T07:18:09;99793.13;;;16.80;43.07
72855;BME280;60991;51.278;22.550;2023-06-04T07:19:40;99793.41;;;16.84;43.23
72855;BME280;60991;51.278;22.550;2023-06-04T07:21:10;99790.97;;;16.87;43.20
72855;BME280;60991;51.278;22.550;2023-06-04T07:22:40;99787.75;;;16.95;42.87
72855;BME280;60991;51.278;22.550;2023-06-04T07:24:10;99786.13;;;16.94;42.81
72855;BME280;60991;51.278;22.550;2023-06-04T07:25:40;99787.47;;;16.97;42.94
72855;BME280;60991;51.278;22.550;2023-06-04T07:27:12;99782.38;;;17.01;43.06
72855;BME280;60991;51.278;22.550;2023-06-04T07:28:42;99787.22;;;17.04;43.08
72855;BME280;60991;51.278;22.550;2023-06-04T07:30:13;99788.00;;;17.09;42.94
72855;BME280;60991;51.278;22.550;2023-06-04T07:31:43;99792.03;;;17.12;42.67
72855;BME280;60991;51.278;22.550;2023-06-04T07:33:13;99786.91;;;17.15;42.56
72855;BME280;60991;51.278;22.550;2023-06-04T07:34:43;99793.63;;;17.18;42.10
72855;BME280;60991;51.278;22.550;2023-06-04T07:36:14;99788.53;;;17.21;42.28
72855;BME280;60991;51.278;22.550;2023-06-04T07:37:44;99786.13;;;17.25;42.10
72855;BME280;60991;51.278;22.550;2023-06-04T07:39:15;99791.50;;;17.25;41.43
72855;BME280;60991;51.278;22.550;2023-06-04T07:40:45;99787.44;;;17.27;41.27
72855;BME280;60991;51.278;22.550;2023-06-04T07:42:16;99786.91;;;17.30;41.05
72855;BME280;60991;51.278;22.550;2023-06-04T07:43:46;99785.00;;;17.36;40.74
72855;BME280;60991;51.278;22.550;2023-06-04T07:45:16;99782.31;;;17.41;40.75
72855;BME280;60991;51.278;22.550;2023-06-04T07:46:46;99788.22;;;17.43;40.26
72855;BME280;60991;51.278;22.550;2023-06-04T07:48:17;99785.28;;;17.40;41.15
72855;BME280;60991;51.278;22.550;2023-06-04T07:49:47;99792.50;;;17.44;41.64
72855;BME280;60991;51.278;22.550;2023-06-04T07:51:17;99784.44;;;17.49;42.11
72855;BME280;60991;51.278;22.550;2023-06-04T07:52:47;99787.91;;;17.55;41.71
72855;BME280;60991;51.278;22.550;2023-06-04T07:54:18;99789.25;;;17.57;41.50